sensor_id;sensor_type;location;lat;lon;timestamp;temperature;humidity
66506;HTU21D;53332;51.082;5.832;2023-02-28T00:00:18;2.31;94.79
66506;HTU21D;53332;51.082;5.832;2023-02-28T00:02:45;2.26;94.98
66506;HTU21D;53332;51.082;5.832;2023-02-28T00:05:13;2.22;95.25
66506;HTU21D;53332;51.082;5.832;2023-02-28T00:07:40;2.15;95.52
66506;HTU21D;53332;51.082;5.832;2023-02-28T00:10:08;2.11;95.88
66506;HTU21D;53332;51.082;5.832;2023-02-28T00:12:35;2.09;96.04
66506;HTU21D;53332;51.082;5.832;2023-02-28T00:15:02;2.08;96.07
66506;HTU21D;53332;51.082;5.832;2023-02-28T00:17:27;2.08;95.95
66506;HTU21D;53332;51.082;5.832;2023-02-28T00:19:53;2.08;95.69
66506;HTU21D;53332;51.082;5.832;2023-02-28T00:22:20;2.05;95.86
66506;HTU21D;53332;51.082;5.832;2023-02-28T00:24:46;2.03;95.84
66506;HTU21D;53332;51.082;5.832;2023-02-28T00:27:13;2.02;95.89
66506;HTU21D;53332;51.082;5.832;2023-02-28T00:29:39;2.00;96.08
66506;HTU21D;53332;51.082;5.832;2023-02-28T00:32:06;2.01;95.91
66506;HTU21D;53332;51.082;5.832;2023-02-28T00:34:32;1.99;96.10
66506;HTU21D;53332;51.082;5.832;2023-02-28T00:37:08;1.99;96.42
66506;HTU21D;53332;51.082;5.832;2023-02-28T00:39:35;1.97;96.81
66506;HTU21D;53332;51.082;5.832;2023-02-28T00:42:03;1.95;97.07
66506;HTU21D;53332;51.082;5.832;2023-02-28T00:44:29;1.93;97.36
66506;HTU21D;53332;51.082;5.832;2023-02-28T00:46:55;1.87;97.84
66506;HTU21D;53332;51.082;5.832;2023-02-28T00:49:22;1.84;98.24
66506;HTU21D;53332;51.082;5.832;2023-02-28T00:51:49;1.82;98.51
66506;HTU21D;53332;51.082;5.832;2023-02-28T00:54:15;1.81;98.88
66506;HTU21D;53332;51.082;5.832;2023-02-28T00:56:40;1.75;99.31
66506;HTU21D;53332;51.082;5.832;2023-02-28T00:59:06;1.73;99.43
66506;HTU21D;53332;51.082;5.832;2023-02-28T01:01:32;1.72;99.74
66506;HTU21D;53332;51.082;5.832;2023-02-28T01:03:57;1.72;99.54
66506;HTU21D;53332;51.082;5.832;2023-02-28T01:06:23;1.72;99.69
66506;HTU21D;53332;51.082;5.832;2023-02-28T01:08:49;1.72;99.58
66506;HTU21D;53332;51.082;5.832;2023-02-28T01:11:16;1.72;99.54
66506;HTU21D;53332;51.082;5.832;2023-02-28T01:13:43;1.73;99.60
66506;HTU21D;53332;51.082;5.832;2023-02-28T01:16:09;1.76;99.33
66506;HTU21D;53332;51.082;5.832;2023-02-28T01:18:36;1.76;99.09
66506;HTU21D;53332;51.082;5.832;2023-02-28T01:21:21;1.72;98.93
66506;HTU21D;53332;51.082;5.832;2023-02-28T01:23:47;1.69;99.11
66506;HTU21D;53332;51.082;5.832;2023-02-28T01:28:41;1.70;99.34
66506;HTU21D;53332;51.082;5.832;2023-02-28T01:31:08;1.72;99.08
66506;HTU21D;53332;51.082;5.832;2023-02-28T01:33:35;1.70;98.74
66506;HTU21D;53332;51.082;5.832;2023-02-28T01:36:22;1.66;99.34
66506;HTU21D;53332;51.082;5.832;2023-02-28T01:38:48;1.67;99.45
66506;HTU21D;53332;51.082;5.832;2023-02-28T01:41:35;1.68;99.32
66506;HTU21D;53332;51.082;5.832;2023-02-28T01:44:07;1.70;98.90
66506;HTU21D;53332;51.082;5.832;2023-02-28T01:46:51;1.72;98.62
66506;HTU21D;53332;51.082;5.832;2023-02-28T01:49:18;1.72;98.35
66506;HTU21D;53332;51.082;5.832;2023-02-28T01:51:55;1.75;98.05
66506;HTU21D;53332;51.082;5.832;2023-02-28T01:54:28;1.77;97.58
66506;HTU21D;53332;51.082;5.832;2023-02-28T01:57:05;1.77;96.92
66506;HTU21D;53332;51.082;5.832;2023-02-28T01:59:43;1.71;96.75
66506;HTU21D;53332;51.082;5.832;2023-02-28T02:02:15;1.65;97.13
66506;HTU21D;53332;51.082;5.832;2023-02-28T02:05:03;1.60;97.77
66506;HTU21D;53332;51.082;5.832;2023-02-28T02:07:33;1.47;98.87
66506;HTU21D;53332;51.082;5.832;2023-02-28T02:10:12;1.41;99.67
66506;HTU21D;53332;51.082;5.832;2023-02-28T02:13:42;1.34;100.64
66506;HTU21D;53332;51.082;5.832;2023-02-28T02:15:56;1.35;101.33
66506;HTU21D;53332;51.082;5.832;2023-02-28T02:38:15;1.61;99.26
66506;HTU21D;53332;51.082;5.832;2023-02-28T02:40:50;1.62;98.90
66506;HTU21D;53332;51.082;5.832;2023-02-28T02:46:20;1.60;98.73
66506;HTU21D;53332;51.082;5.832;2023-02-28T02:48:48;1.58;98.70
66506;HTU21D;53332;51.082;5.832;2023-02-28T02:51:17;1.52;99.10
66506;HTU21D;53332;51.082;5.832;2023-02-28T02:53:50;1.40;100.16
66506;HTU21D;53332;51.082;5.832;2023-02-28T02:56:26;1.34;101.05
66506;HTU21D;53332;51.082;5.832;2023-02-28T02:58:57;1.27;101.93
66506;HTU21D;53332;51.082;5.832;2023-02-28T03:01:28;1.23;102.64
66506;HTU21D;53332;51.082;5.832;2023-02-28T03:04:08;1.19;103.22
66506;HTU21D;53332;51.082;5.832;2023-02-28T03:06:34;1.13;103.89
66506;HTU21D;53332;51.082;5.832;2023-02-28T03:09:01;1.09;104.40
66506;HTU21D;53332;51.082;5.832;2023-02-28T03:11:27;1.07;104.86
66506;HTU21D;53332;51.082;5.832;2023-02-28T03:17:03;0.96;106.14
66506;HTU21D;53332;51.082;5.832;2023-02-28T03:20:01;0.96;106.57
66506;HTU21D;53332;51.082;5.832;2023-02-28T03:28:05;0.96;106.75
66506;HTU21D;53332;51.082;5.832;2023-02-28T03:30:58;0.97;106.88
66506;HTU21D;53332;51.082;5.832;2023-02-28T03:33:36;0.97;106.81
66506;HTU21D;53332;51.082;5.832;2023-02-28T03:36:17;0.98;106.92
66506;HTU21D;53332;51.082;5.832;2023-02-28T03:38:51;1.01;106.89
66506;HTU21D;53332;51.082;5.832;2023-02-28T03:41:38;1.04;106.75
66506;HTU21D;53332;51.082;5.832;2023-02-28T03:44:12;1.07;106.45
66506;HTU21D;53332;51.082;5.832;2023-02-28T03:46:48;1.06;106.40
66506;HTU21D;53332;51.082;5.832;2023-02-28T03:49:32;1.06;106.24
66506;HTU21D;53332;51.082;5.832;2023-02-28T03:52:02;1.06;105.86
66506;HTU21D;53332;51.082;5.832;2023-02-28T03:54:33;1.08;105.79
66506;HTU21D;53332;51.082;5.832;2023-02-28T04:00:07;1.04;105.66
66506;HTU21D;53332;51.082;5.832;2023-02-28T04:02:34;1.05;105.43
66506;HTU21D;53332;51.082;5.832;2023-02-28T04:05:00;1.03;105.26
66506;HTU21D;53332;51.082;5.832;2023-02-28T04:07:30;1.02;105.28
66506;HTU21D;53332;51.082;5.832;2023-02-28T04:09:56;1.04;104.87
66506;HTU21D;53332;51.082;5.832;2023-02-28T04:12:21;1.03;104.65
66506;HTU21D;53332;51.082;5.832;2023-02-28T04:14:49;1.04;104.53
66506;HTU21D;53332;51.082;5.832;2023-02-28T04:17:15;1.07;104.34
66506;HTU21D;53332;51.082;5.832;2023-02-28T04:19:40;1.08;104.20
66506;HTU21D;53332;51.082;5.832;2023-02-28T04:22:08;1.13;103.76
66506;HTU21D;53332;51.082;5.832;2023-02-28T04:24:33;1.17;102.99
66506;HTU21D;53332;51.082;5.832;2023-02-28T04:26:59;1.18;102.30
66506;HTU21D;53332;51.082;5.832;2023-02-28T04:29:31;1.18;101.77
66506;HTU21D;53332;51.082;5.832;2023-02-28T04:31:59;1.18;101.43
66506;HTU21D;53332;51.082;5.832;2023-02-28T04:34:26;1.11;101.57
66506;HTU21D;53332;51.082;5.832;2023-02-28T04:36:53;1.04;101.97
66506;HTU21D;53332;51.082;5.832;2023-02-28T04:39:21;0.98;102.42
66506;HTU21D;53332;51.082;5.832;2023-02-28T04:41:47;0.94;102.83
66506;HTU21D;53332;51.082;5.832;2023-02-28T04:44:13;0.90;103.15
66506;HTU21D;53332;51.082;5.832;2023-02-28T04:46:39;0.86;103.44
66506;HTU21D;53332;51.082;5.832;2023-02-28T04:49:05;0.87;103.80
66506;HTU21D;53332;51.082;5.832;2023-02-28T04:51:30;0.91;103.81
66506;HTU21D;53332;51.082;5.832;2023-02-28T04:53:56;0.93;103.52
66506;HTU21D;53332;51.082;5.832;2023-02-28T04:56:21;0.96;103.27
66506;HTU21D;53332;51.082;5.832;2023-02-28T04:58:48;1.02;102.72
66506;HTU21D;53332;51.082;5.832;2023-02-28T05:01:24;1.06;102.36
66506;HTU21D;53332;51.082;5.832;2023-02-28T05:03:51;1.10;101.99
66506;HTU21D;53332;51.082;5.832;2023-02-28T05:06:17;1.11;101.64
66506;HTU21D;53332;51.082;5.832;2023-02-28T05:08:43;1.10;101.49
66506;HTU21D;53332;51.082;5.832;2023-02-28T05:11:16;1.10;101.57
66506;HTU21D;53332;51.082;5.832;2023-02-28T05:13:42;1.02;101.79
66506;HTU21D;53332;51.082;5.832;2023-02-28T05:16:07;0.93;102.54
66506;HTU21D;53332;51.082;5.832;2023-02-28T05:18:32;0.78;103.49
66506;HTU21D;53332;51.082;5.832;2023-02-28T05:20:59;0.69;104.67
66506;HTU21D;53332;51.082;5.832;2023-02-28T05:23:27;0.67;105.23
66506;HTU21D;53332;51.082;5.832;2023-02-28T05:25:53;0.66;105.14
66506;HTU21D;53332;51.082;5.832;2023-02-28T05:28:20;0.67;105.06
66506;HTU21D;53332;51.082;5.832;2023-02-28T05:30:45;0.66;105.08
66506;HTU21D;53332;51.082;5.832;2023-02-28T05:33:12;0.67;105.24
66506;HTU21D;53332;51.082;5.832;2023-02-28T05:35:39;0.64;105.12
66506;HTU21D;53332;51.082;5.832;2023-02-28T05:38:06;0.62;105.34
66506;HTU21D;53332;51.082;5.832;2023-02-28T05:40:31;0.59;105.45
66506;HTU21D;53332;51.082;5.832;2023-02-28T05:42:57;0.57;105.29
66506;HTU21D;53332;51.082;5.832;2023-02-28T05:45:22;0.57;105.28
66506;HTU21D;53332;51.082;5.832;2023-02-28T05:47:48;0.55;105.03
66506;HTU21D;53332;51.082;5.832;2023-02-28T05:50:13;0.55;104.81
66506;HTU21D;53332;51.082;5.832;2023-02-28T05:52:39;0.52;104.78
66506;HTU21D;53332;51.082;5.832;2023-02-28T05:55:05;0.51;104.53
66506;HTU21D;53332;51.082;5.832;2023-02-28T05:57:30;0.51;104.43
66506;HTU21D;53332;51.082;5.832;2023-02-28T05:59:56;0.50;104.00
66506;HTU21D;53332;51.082;5.832;2023-02-28T06:02:21;0.51;103.83
66506;HTU21D;53332;51.082;5.832;2023-02-28T06:04:47;0.51;103.57
66506;HTU21D;53332;51.082;5.832;2023-02-28T06:07:12;0.50;103.15
66506;HTU21D;53332;51.082;5.832;2023-02-28T06:09:39;0.50;103.03
66506;HTU21D;53332;51.082;5.832;2023-02-28T06:12:06;0.52;102.68
66506;HTU21D;53332;51.082;5.832;2023-02-28T06:14:34;0.51;102.26
66506;HTU21D;53332;51.082;5.832;2023-02-28T06:17:00;0.52;101.99
66506;HTU21D;53332;51.082;5.832;2023-02-28T06:19:26;0.53;101.40
66506;HTU21D;53332;51.082;5.832;2023-02-28T06:21:53;0.51;101.01
66506;HTU21D;53332;51.082;5.832;2023-02-28T06:24:20;0.48;100.64
66506;HTU21D;53332;51.082;5.832;2023-02-28T06:26:46;0.43;100.70
66506;HTU21D;53332;51.082;5.832;2023-02-28T06:29:12;0.42;100.43
66506;HTU21D;53332;51.082;5.832;2023-02-28T06:31:42;0.42;100.72
66506;HTU21D;53332;51.082;5.832;2023-02-28T06:34:09;0.45;100.93
66506;HTU21D;53332;51.082;5.832;2023-02-28T06:36:37;0.52;100.77
66506;HTU21D;53332;51.082;5.832;2023-02-28T06:39:03;0.59;100.40
66506;HTU21D;53332;51.082;5.832;2023-02-28T06:41:29;0.62;100.16
66506;HTU21D;53332;51.082;5.832;2023-02-28T06:43:54;0.64;99.79
66506;HTU21D;53332;51.082;5.832;2023-02-28T06:46:20;0.64;99.40
66506;HTU21D;53332;51.082;5.832;2023-02-28T06:48:46;0.65;99.49
66506;HTU21D;53332;51.082;5.832;2023-02-28T06:51:15;0.67;99.09
66506;HTU21D;53332;51.082;5.832;2023-02-28T06:53:41;0.67;99.11
66506;HTU21D;53332;51.082;5.832;2023-02-28T06:56:09;0.71;99.11
66506;HTU21D;53332;51.082;5.832;2023-02-28T06:58:35;0.74;98.89
66506;HTU21D;53332;51.082;5.832;2023-02-28T07:01:02;0.76;98.77
66506;HTU21D;53332;51.082;5.832;2023-02-28T07:03:28;0.78;98.75
66506;HTU21D;53332;51.082;5.832;2023-02-28T07:05:53;0.81;98.83
66506;HTU21D;53332;51.082;5.832;2023-02-28T07:08:22;0.83;99.14
66506;HTU21D;53332;51.082;5.832;2023-02-28T07:10:51;0.84;99.55
66506;HTU21D;53332;51.082;5.832;2023-02-28T07:13:17;0.89;100.27
66506;HTU21D;53332;51.082;5.832;2023-02-28T07:15:42;0.95;100.89
66506;HTU21D;53332;51.082;5.832;2023-02-28T07:18:08;1.10;101.60
66506;HTU21D;53332;51.082;5.832;2023-02-28T07:20:33;1.28;101.81
66506;HTU21D;53332;51.082;5.832;2023-02-28T07:22:59;1.49;101.28
66506;HTU21D;53332;51.082;5.832;2023-02-28T07:25:26;1.71;100.54
66506;HTU21D;53332;51.082;5.832;2023-02-28T07:27:53;1.94;98.71
66506;HTU21D;53332;51.082;5.832;2023-02-28T07:30:19;2.10;97.21
66506;HTU21D;53332;51.082;5.832;2023-02-28T07:32:45;2.25;96.71
66506;HTU21D;53332;51.082;5.832;2023-02-28T07:35:10;2.39;95.33
66506;HTU21D;53332;51.082;5.832;2023-02-28T07:37:36;2.55;93.27
66506;HTU21D;53332;51.082;5.832;2023-02-28T07:40:07;2.68;93.04
66506;HTU21D;53332;51.082;5.832;2023-02-28T07:42:35;2.89;92.30
66506;HTU21D;53332;51.082;5.832;2023-02-28T07:45:01;3.08;90.37
66506;HTU21D;53332;51.082;5.832;2023-02-28T07:47:29;3.20;87.21
66506;HTU21D;53332;51.082;5.832;2023-02-28T07:49:55;3.18;86.61
66506;HTU21D;53332;51.082;5.832;2023-02-28T07:52:21;3.26;85.97
66506;HTU21D;53332;51.082;5.832;2023-02-28T07:54:46;3.33;85.34
66506;HTU21D;53332;51.082;5.832;2023-02-28T07:57:12;3.45;83.84
66506;HTU21D;53332;51.082;5.832;2023-02-28T07:59:37;3.50;83.29
66506;HTU21D;53332;51.082;5.832;2023-02-28T08:02:03;3.61;83.95
66506;HTU21D;53332;51.082;5.832;2023-02-28T08:04:31;3.80;82.75
66506;HTU21D;53332;51.082;5.832;2023-02-28T08:06:57;3.86;80.75
66506;HTU21D;53332;51.082;5.832;2023-02-28T08:09:23;3.92;80.79
66506;HTU21D;53332;51.082;5.832;2023-02-28T08:11:48;4.00;78.94
66506;HTU21D;53332;51.082;5.832;2023-02-28T08:14:14;4.02;77.90
66506;HTU21D;53332;51.082;5.832;2023-02-28T08:16:39;4.00;76.63
66506;HTU21D;53332;51.082;5.832;2023-02-28T08:19:05;3.94;77.14
66506;HTU21D;53332;51.082;5.832;2023-02-28T08:21:30;3.98;76.57
66506;HTU21D;53332;51.082;5.832;2023-02-28T08:23:56;3.99;75.55
66506;HTU21D;53332;51.082;5.832;2023-02-28T08:26:22;3.97;75.89
66506;HTU21D;53332;51.082;5.832;2023-02-28T08:28:47;3.99;75.62
66506;HTU21D;53332;51.082;5.832;2023-02-28T08:31:15;4.02;74.94
66506;HTU21D;53332;51.082;5.832;2023-02-28T08:33:42;4.09;73.98
66506;HTU21D;53332;51.082;5.832;2023-02-28T08:36:10;4.17;74.47
66506;HTU21D;53332;51.082;5.832;2023-02-28T08:38:36;4.31;74.74
66506;HTU21D;53332;51.082;5.832;2023-02-28T08:41:08;4.37;73.72
66506;HTU21D;53332;51.082;5.832;2023-02-28T08:43:35;4.43;71.77
66506;HTU21D;53332;51.082;5.832;2023-02-28T08:46:01;4.44;71.77
66506;HTU21D;53332;51.082;5.832;2023-02-28T08:48:29;4.50;72.21
66506;HTU21D;53332;51.082;5.832;2023-02-28T08:51:07;4.56;70.26
66506;HTU21D;53332;51.082;5.832;2023-02-28T08:53:35;4.57;70.09
66506;HTU21D;53332;51.082;5.832;2023-02-28T08:56:04;4.61;69.35
66506;HTU21D;53332;51.082;5.832;2023-02-28T08:58:30;4.62;69.02
66506;HTU21D;53332;51.082;5.832;2023-02-28T09:00:55;4.64;67.52
66506;HTU21D;53332;51.082;5.832;2023-02-28T09:03:22;4.66;68.74
66506;HTU21D;53332;51.082;5.832;2023-02-28T09:06:07;4.76;65.84
66506;HTU21D;53332;51.082;5.832;2023-02-28T09:08:33;4.76;65.74
66506;HTU21D;53332;51.082;5.832;2023-02-28T09:10:58;4.89;66.79
66506;HTU21D;53332;51.082;5.832;2023-02-28T09:13:28;5.01;65.76
66506;HTU21D;53332;51.082;5.832;2023-02-28T09:15:57;5.19;64.50
66506;HTU21D;53332;51.082;5.832;2023-02-28T09:18:23;5.22;62.02
66506;HTU21D;53332;51.082;5.832;2023-02-28T09:20:48;5.40;60.94
66506;HTU21D;53332;51.082;5.832;2023-02-28T09:23:14;5.56;61.06
66506;HTU21D;53332;51.082;5.832;2023-02-28T09:25:54;5.69;59.01
66506;HTU21D;53332;51.082;5.832;2023-02-28T09:28:21;5.80;58.73
66506;HTU21D;53332;51.082;5.832;2023-02-28T09:30:52;5.99;57.06
66506;HTU21D;53332;51.082;5.832;2023-02-28T09:33:19;6.02;56.40
66506;HTU21D;53332;51.082;5.832;2023-02-28T09:35:58;6.04;55.92
66506;HTU21D;53332;51.082;5.832;2023-02-28T09:38:25;6.10;55.33
66506;HTU21D;53332;51.082;5.832;2023-02-28T09:40:54;6.30;55.42
66506;HTU21D;53332;51.082;5.832;2023-02-28T09:43:26;6.44;54.14
66506;HTU21D;53332;51.082;5.832;2023-02-28T09:48:33;6.30;50.95
66506;HTU21D;53332;51.082;5.832;2023-02-28T09:51:09;6.23;50.95
66506;HTU21D;53332;51.082;5.832;2023-02-28T09:53:38;6.13;51.14
66506;HTU21D;53332;51.082;5.832;2023-02-28T09:56:11;6.07;50.40
66506;HTU21D;53332;51.082;5.832;2023-02-28T09:58:53;5.98;49.97
66506;HTU21D;53332;51.082;5.832;2023-02-28T10:01:39;5.84;48.77
66506;HTU21D;53332;51.082;5.832;2023-02-28T10:07:13;5.76;49.72
66506;HTU21D;53332;51.082;5.832;2023-02-28T10:09:46;5.71;50.03
66506;HTU21D;53332;51.082;5.832;2023-02-28T10:12:15;5.65;49.51
66506;HTU21D;53332;51.082;5.832;2023-02-28T10:14:46;5.51;49.43
66506;HTU21D;53332;51.082;5.832;2023-02-28T10:17:18;5.45;48.87
66506;HTU21D;53332;51.082;5.832;2023-02-28T10:20:07;5.18;48.12
66506;HTU21D;53332;51.082;5.832;2023-02-28T10:22:50;5.02;47.45
66506;HTU21D;53332;51.082;5.832;2023-02-28T10:25:20;5.05;48.92
66506;HTU21D;53332;51.082;5.832;2023-02-28T10:27:46;5.12;50.64
66506;HTU21D;53332;51.082;5.832;2023-02-28T10:30:13;5.24;50.13
66506;HTU21D;53332;51.082;5.832;2023-02-28T10:32:46;5.23;49.09
66506;HTU21D;53332;51.082;5.832;2023-02-28T10:35:22;5.18;49.38
66506;HTU21D;53332;51.082;5.832;2023-02-28T10:37:53;5.16;49.05
66506;HTU21D;53332;51.082;5.832;2023-02-28T10:43:17;5.08;47.67
66506;HTU21D;53332;51.082;5.832;2023-02-28T10:45:57;5.11;49.11
66506;HTU21D;53332;51.082;5.832;2023-02-28T10:48:31;5.16;49.90
66506;HTU21D;53332;51.082;5.832;2023-02-28T10:50:58;5.21;49.13
66506;HTU21D;53332;51.082;5.832;2023-02-28T10:58:58;5.02;46.41
66506;HTU21D;53332;51.082;5.832;2023-02-28T11:04:02;4.61;47.78
66506;HTU21D;53332;51.082;5.832;2023-02-28T11:06:33;4.77;49.42
66506;HTU21D;53332;51.082;5.832;2023-02-28T11:09:03;4.97;49.73
66506;HTU21D;53332;51.082;5.832;2023-02-28T11:11:42;5.07;49.12
66506;HTU21D;53332;51.082;5.832;2023-02-28T11:14:20;5.08;48.70
66506;HTU21D;53332;51.082;5.832;2023-02-28T11:16:48;4.92;47.81
66506;HTU21D;53332;51.082;5.832;2023-02-28T11:19:20;4.87;47.92
66506;HTU21D;53332;51.082;5.832;2023-02-28T11:21:58;5.00;49.72
66506;HTU21D;53332;51.082;5.832;2023-02-28T11:24:33;5.12;49.18
66506;HTU21D;53332;51.082;5.832;2023-02-28T11:27:01;5.11;49.13
66506;HTU21D;53332;51.082;5.832;2023-02-28T11:29:29;5.15;49.31
66506;HTU21D;53332;51.082;5.832;2023-02-28T11:34:36;5.11;49.15
66506;HTU21D;53332;51.082;5.832;2023-02-28T11:37:05;5.16;49.79
66506;HTU21D;53332;51.082;5.832;2023-02-28T11:39:33;5.22;48.99
66506;HTU21D;53332;51.082;5.832;2023-02-28T11:42:02;5.16;47.68
66506;HTU21D;53332;51.082;5.832;2023-02-28T11:44:55;5.09;49.42
66506;HTU21D;53332;51.082;5.832;2023-02-28T11:52:53;5.26;49.94
66506;HTU21D;53332;51.082;5.832;2023-02-28T11:55:32;5.16;47.19
66506;HTU21D;53332;51.082;5.832;2023-02-28T12:01:13;5.24;50.10
66506;HTU21D;53332;51.082;5.832;2023-02-28T12:06:24;5.28;50.17
66506;HTU21D;53332;51.082;5.832;2023-02-28T12:11:56;5.57;50.57
66506;HTU21D;53332;51.082;5.832;2023-02-28T12:14:31;5.78;50.66
66506;HTU21D;53332;51.082;5.832;2023-02-28T12:22:30;5.80;50.47
66506;HTU21D;53332;51.082;5.832;2023-02-28T12:27:52;5.52;48.10
66506;HTU21D;53332;51.082;5.832;2023-02-28T12:30:31;5.54;50.43
66506;HTU21D;53332;51.082;5.832;2023-02-28T12:33:12;5.62;50.18
66506;HTU21D;53332;51.082;5.832;2023-02-28T12:35:52;5.41;49.11
66506;HTU21D;53332;51.082;5.832;2023-02-28T12:38:36;5.40;50.60
66506;HTU21D;53332;51.082;5.832;2023-02-28T12:41:13;5.65;51.32
66506;HTU21D;53332;51.082;5.832;2023-02-28T12:43:55;5.97;52.46
66506;HTU21D;53332;51.082;5.832;2023-02-28T12:46:37;6.14;49.20
66506;HTU21D;53332;51.082;5.832;2023-02-28T12:51:52;5.89;50.36
66506;HTU21D;53332;51.082;5.832;2023-02-28T13:10:17;5.57;51.37
66506;HTU21D;53332;51.082;5.832;2023-02-28T13:12:49;5.59;52.39
66506;HTU21D;53332;51.082;5.832;2023-02-28T13:15:25;5.69;52.69
66506;HTU21D;53332;51.082;5.832;2023-02-28T13:17:56;5.78;51.72
66506;HTU21D;53332;51.082;5.832;2023-02-28T13:20:35;5.85;52.16
66506;HTU21D;53332;51.082;5.832;2023-02-28T13:23:01;5.91;52.01
66506;HTU21D;53332;51.082;5.832;2023-02-28T13:28:00;5.92;51.25
66506;HTU21D;53332;51.082;5.832;2023-02-28T13:35:45;5.99;51.62
66506;HTU21D;53332;51.082;5.832;2023-02-28T13:38:24;6.04;50.94
66506;HTU21D;53332;51.082;5.832;2023-02-28T13:40:50;6.06;51.08
66506;HTU21D;53332;51.082;5.832;2023-02-28T13:43:17;6.05;50.11
66506;HTU21D;53332;51.082;5.832;2023-02-28T13:46:12;6.05;51.21
66506;HTU21D;53332;51.082;5.832;2023-02-28T13:48:38;6.09;51.14
66506;HTU21D;53332;51.082;5.832;2023-02-28T13:51:28;6.02;51.59
66506;HTU21D;53332;51.082;5.832;2023-02-28T13:54:16;6.14;51.88
66506;HTU21D;53332;51.082;5.832;2023-02-28T13:57:00;6.23;51.62
66506;HTU21D;53332;51.082;5.832;2023-02-28T13:59:55;6.29;51.48
66506;HTU21D;53332;51.082;5.832;2023-02-28T14:05:16;6.25;50.97
66506;HTU21D;53332;51.082;5.832;2023-02-28T14:07:57;6.23;50.61
66506;HTU21D;53332;51.082;5.832;2023-02-28T14:10:36;6.15;50.21
66506;HTU21D;53332;51.082;5.832;2023-02-28T14:13:12;6.17;49.97
66506;HTU21D;53332;51.082;5.832;2023-02-28T14:20:43;6.19;51.11
66506;HTU21D;53332;51.082;5.832;2023-02-28T14:35:45;6.36;49.58
66506;HTU21D;53332;51.082;5.832;2023-02-28T14:37:50;6.35;50.56
66506;HTU21D;53332;51.082;5.832;2023-02-28T14:40:37;6.39;50.60
66506;HTU21D;53332;51.082;5.832;2023-02-28T14:43:06;6.37;50.13
66506;HTU21D;53332;51.082;5.832;2023-02-28T14:45:42;6.39;49.50
66506;HTU21D;53332;51.082;5.832;2023-02-28T14:48:09;6.37;49.20
66506;HTU21D;53332;51.082;5.832;2023-02-28T14:50:37;6.35;49.89
66506;HTU21D;53332;51.082;5.832;2023-02-28T14:53:03;6.37;50.54
66506;HTU21D;53332;51.082;5.832;2023-02-28T14:55:35;6.39;50.24
66506;HTU21D;53332;51.082;5.832;2023-02-28T14:58:06;6.40;49.95
66506;HTU21D;53332;51.082;5.832;2023-02-28T15:00:50;6.43;49.63
66506;HTU21D;53332;51.082;5.832;2023-02-28T15:05:59;6.40;49.27
66506;HTU21D;53332;51.082;5.832;2023-02-28T15:08:26;6.36;49.10
66506;HTU21D;53332;51.082;5.832;2023-02-28T15:13:41;6.27;48.98
66506;HTU21D;53332;51.082;5.832;2023-02-28T15:16:25;6.28;49.33
66506;HTU21D;53332;51.082;5.832;2023-02-28T15:21:33;6.23;49.96
66506;HTU21D;53332;51.082;5.832;2023-02-28T15:26:54;6.22;50.39
66506;HTU21D;53332;51.082;5.832;2023-02-28T15:29:25;6.30;51.02
66506;HTU21D;53332;51.082;5.832;2023-02-28T15:32:01;6.37;50.40
66506;HTU21D;53332;51.082;5.832;2023-02-28T15:34:36;6.33;49.69
66506;HTU21D;53332;51.082;5.832;2023-02-28T15:37:26;6.28;50.77
66506;HTU21D;53332;51.082;5.832;2023-02-28T15:39:54;6.28;50.66
66506;HTU21D;53332;51.082;5.832;2023-02-28T15:42:22;6.31;50.64
66506;HTU21D;53332;51.082;5.832;2023-02-28T15:44:48;6.34;50.38
66506;HTU21D;53332;51.082;5.832;2023-02-28T15:47:27;6.35;50.40
66506;HTU21D;53332;51.082;5.832;2023-02-28T15:50:00;6.38;50.79
66506;HTU21D;53332;51.082;5.832;2023-02-28T15:52:45;6.31;50.59
66506;HTU21D;53332;51.082;5.832;2023-02-28T15:55:21;6.27;50.65
66506;HTU21D;53332;51.082;5.832;2023-02-28T15:57:51;6.27;50.74
66506;HTU21D;53332;51.082;5.832;2023-02-28T16:00:23;6.30;50.67
66506;HTU21D;53332;51.082;5.832;2023-02-28T16:02:50;6.21;50.14
66506;HTU21D;53332;51.082;5.832;2023-02-28T16:05:26;6.17;50.24
66506;HTU21D;53332;51.082;5.832;2023-02-28T16:08:01;6.17;50.48
66506;HTU21D;53332;51.082;5.832;2023-02-28T16:10:32;6.17;50.25
66506;HTU21D;53332;51.082;5.832;2023-02-28T16:12:58;6.17;50.08
66506;HTU21D;53332;51.082;5.832;2023-02-28T16:15:27;6.20;50.47
66506;HTU21D;53332;51.082;5.832;2023-02-28T16:17:55;6.22;50.40
66506;HTU21D;53332;51.082;5.832;2023-02-28T16:20:27;6.16;50.79
66506;HTU21D;53332;51.082;5.832;2023-02-28T16:22:54;6.21;51.04
66506;HTU21D;53332;51.082;5.832;2023-02-28T16:25:24;6.16;51.52
66506;HTU21D;53332;51.082;5.832;2023-02-28T16:27:53;6.14;51.27
66506;HTU21D;53332;51.082;5.832;2023-02-28T16:30:24;6.15;51.22
66506;HTU21D;53332;51.082;5.832;2023-02-28T16:32:54;6.20;51.68
66506;HTU21D;53332;51.082;5.832;2023-02-28T16:35:21;6.17;51.93
66506;HTU21D;53332;51.082;5.832;2023-02-28T16:37:47;6.12;51.74
66506;HTU21D;53332;51.082;5.832;2023-02-28T16:40:15;6.07;51.97
66506;HTU21D;53332;51.082;5.832;2023-02-28T16:42:42;6.06;51.98
66506;HTU21D;53332;51.082;5.832;2023-02-28T16:45:19;6.04;51.74
66506;HTU21D;53332;51.082;5.832;2023-02-28T16:47:45;6.01;52.24
66506;HTU21D;53332;51.082;5.832;2023-02-28T16:50:22;6.00;52.24
66506;HTU21D;53332;51.082;5.832;2023-02-28T16:52:49;6.00;52.78
66506;HTU21D;53332;51.082;5.832;2023-02-28T16:55:17;5.97;53.72
66506;HTU21D;53332;51.082;5.832;2023-02-28T16:57:50;5.95;54.19
66506;HTU21D;53332;51.082;5.832;2023-02-28T17:00:16;5.86;54.55
66506;HTU21D;53332;51.082;5.832;2023-02-28T17:02:42;5.78;53.67
66506;HTU21D;53332;51.082;5.832;2023-02-28T17:05:10;5.70;54.17
66506;HTU21D;53332;51.082;5.832;2023-02-28T17:07:36;5.64;54.75
66506;HTU21D;53332;51.082;5.832;2023-02-28T17:10:04;5.61;55.29
66506;HTU21D;53332;51.082;5.832;2023-02-28T17:12:34;5.55;55.46
66506;HTU21D;53332;51.082;5.832;2023-02-28T17:15:00;5.47;55.24
66506;HTU21D;53332;51.082;5.832;2023-02-28T17:17:26;5.40;55.51
66506;HTU21D;53332;51.082;5.832;2023-02-28T17:19:51;5.36;55.72
66506;HTU21D;53332;51.082;5.832;2023-02-28T17:22:17;5.32;56.29
66506;HTU21D;53332;51.082;5.832;2023-02-28T17:24:42;5.28;56.48
66506;HTU21D;53332;51.082;5.832;2023-02-28T17:27:11;5.27;56.82
66506;HTU21D;53332;51.082;5.832;2023-02-28T17:29:38;5.23;57.27
66506;HTU21D;53332;51.082;5.832;2023-02-28T17:32:03;5.21;57.61
66506;HTU21D;53332;51.082;5.832;2023-02-28T17:34:29;5.20;58.13
66506;HTU21D;53332;51.082;5.832;2023-02-28T17:36:54;5.17;58.51
66506;HTU21D;53332;51.082;5.832;2023-02-28T17:39:20;5.09;58.53
66506;HTU21D;53332;51.082;5.832;2023-02-28T17:41:55;5.03;58.67
66506;HTU21D;53332;51.082;5.832;2023-02-28T17:44:23;4.97;58.93
66506;HTU21D;53332;51.082;5.832;2023-02-28T17:46:53;4.93;59.31
66506;HTU21D;53332;51.082;5.832;2023-02-28T17:49:20;4.92;59.56
66506;HTU21D;53332;51.082;5.832;2023-02-28T17:51:46;4.89;59.75
66506;HTU21D;53332;51.082;5.832;2023-02-28T17:54:12;4.84;60.32
66506;HTU21D;53332;51.082;5.832;2023-02-28T17:56:39;4.81;60.53
66506;HTU21D;53332;51.082;5.832;2023-02-28T17:59:05;4.76;60.96
66506;HTU21D;53332;51.082;5.832;2023-02-28T18:01:31;4.72;61.02